Time;durP1;ratioP1;P1;durP2;ratioP2;P2;SDS_P1;SDS_P2;PMS_P1;PMS_P2;Temp;Humidity;BMP_temperature;BMP_pressure;BME280_temperature;BME280_humidity;BME280_pressure;Samples;Min_cycle;Max_cycle;Signal;HPM_P1;HPM_P2
2024/04/14 00:02:06;;;;;;;5.17;4.70;;;16.10;99.90;;;;;;5342337;26;20221;-68
2024/04/14 00:04:32;;;;;;;4.90;4.50;;;16.10;99.90;;;;;;5311612;27;20206;-69
2024/04/14 00:06:57;;;;;;;5.80;4.47;;;16.00;99.90;;;;;;5324720;26;20271;-69
2024/04/14 00:09:23;;;;;;;4.57;4.10;;;16.00;99.90;;;;;;5343310;26;20990;-69
2024/04/14 00:11:48;;;;;;;5.23;3.37;;;16.00;99.90;;;;;;5343458;26;20607;-69
2024/04/14 00:14:14;;;;;;;4.10;3.80;;;16.00;99.90;;;;;;5326607;26;20269;-68
2024/04/14 00:16:39;;;;;;;4.40;4.10;;;16.00;99.90;;;;;;5341904;26;20271;-69
2024/04/14 00:19:05;;;;;;;7.53;4.00;;;16.10;99.90;;;;;;5345324;26;20225;-68
2024/04/14 00:21:30;;;;;;;4.53;3.63;;;16.10;99.90;;;;;;5320236;26;20233;-68
2024/04/14 00:23:56;;;;;;;10.43;3.53;;;16.10;99.90;;;;;;5335526;26;20237;-68
2024/04/14 00:26:21;;;;;;;3.50;3.30;;;16.10;99.90;;;;;;5319992;26;20548;-68
2024/04/14 00:28:48;;;;;;;3.87;3.50;;;16.10;99.90;;;;;;5313014;26;20264;-69
2024/04/14 00:31:14;;;;;;;4.20;3.93;;;16.00;99.90;;;;;;5317132;26;20280;-68
2024/04/14 00:33:40;;;;;;;3.67;3.37;;;15.90;99.90;;;;;;5327706;26;20457;-69
2024/04/14 00:36:06;;;;;;;6.13;3.50;;;15.80;99.90;;;;;;5313219;26;20477;-68
2024/04/14 00:38:31;;;;;;;4.07;3.67;;;15.70;99.90;;;;;;5333133;26;20279;-68
2024/04/14 00:40:57;;;;;;;3.83;3.53;;;15.60;99.90;;;;;;5343254;26;20330;-67
2024/04/14 00:43:23;;;;;;;4.27;3.77;;;15.60;99.90;;;;;;5342972;26;20229;-68
2024/04/14 00:45:49;;;;;;;4.10;3.80;;;15.50;99.90;;;;;;5325809;26;20221;-68
2024/04/14 00:48:15;;;;;;;4.10;3.80;;;15.60;99.90;;;;;;5344389;26;20480;-67
2024/04/14 00:50:43;;;;;;;4.23;3.83;;;15.50;99.90;;;;;;5345455;26;20432;-67
2024/04/14 00:53:10;;;;;;;7.40;3.93;;;15.50;99.90;;;;;;5344586;26;20792;-67
2024/04/14 00:55:37;;;;;;;6.47;3.90;;;15.40;99.90;;;;;;5326702;26;20584;-67
2024/04/14 00:58:03;;;;;;;4.80;4.40;;;15.40;99.90;;;;;;5321341;26;20455;-68
2024/04/14 01:00:29;;;;;;;4.90;4.40;;;15.40;99.90;;;;;;5344851;26;20514;-68
2024/04/14 01:02:55;;;;;;;6.30;4.33;;;15.50;99.90;;;;;;5344904;26;20888;-68
2024/04/14 01:05:24;;;;;;;3.53;3.10;;;15.50;99.90;;;;;;5312597;26;20457;-68
2024/04/14 01:07:51;;;;;;;3.90;3.60;;;15.40;99.90;;;;;;5311805;26;20468;-68
2024/04/14 01:10:17;;;;;;;5.57;3.40;;;15.40;99.90;;;;;;5313868;26;20456;-67
2024/04/14 01:12:43;;;;;;;3.63;3.20;;;15.50;99.90;;;;;;5311093;26;20582;-67
2024/04/14 01:15:09;;;;;;;2.60;2.40;;;15.50;99.90;;;;;;5314083;26;20280;-67
2024/04/14 01:17:34;;;;;;;3.50;3.20;;;15.50;99.90;;;;;;5327460;26;20461;-67
2024/04/14 01:20:00;;;;;;;3.23;2.93;;;15.60;99.90;;;;;;5310537;27;20213;-67
2024/04/14 01:22:25;;;;;;;3.50;3.20;;;15.60;99.90;;;;;;5310484;27;20331;-67
2024/04/14 01:24:56;;;;;;;3.50;3.20;;;15.60;99.90;;;;;;5331649;26;20254;-67
2024/04/14 01:27:22;;;;;;;3.93;3.10;;;15.50;99.90;;;;;;5312820;26;20256;-67
2024/04/14 01:29:47;;;;;;;6.10;3.90;;;15.50;99.90;;;;;;5318464;26;20831;-68
2024/04/14 01:32:13;;;;;;;5.10;3.00;;;15.40;99.90;;;;;;5313505;26;20280;-68
2024/04/14 01:34:39;;;;;;;3.30;2.90;;;15.40;99.90;;;;;;5342385;26;20342;-67
2024/04/14 01:37:04;;;;;;;5.20;2.67;;;15.50;99.90;;;;;;5346516;26;20240;-68
2024/04/14 01:39:30;;;;;;;3.33;3.03;;;15.40;99.90;;;;;;5345430;26;20687;-67
2024/04/14 01:41:55;;;;;;;4.37;2.83;;;15.40;99.90;;;;;;5345295;26;20338;-68
2024/04/14 01:44:21;;;;;;;3.17;2.87;;;15.40;99.90;;;;;;5347846;26;20213;-68
2024/04/14 01:46:46;;;;;;;4.50;3.30;;;15.50;99.90;;;;;;5325314;26;20723;-68
2024/04/14 01:49:12;;;;;;;3.43;3.13;;;15.50;99.90;;;;;;5347849;26;20213;-68
2024/04/14 01:51:38;;;;;;;3.37;3.17;;;15.50;99.90;;;;;;5332158;26;20276;-67
2024/04/14 01:54:03;;;;;;;4.27;3.37;;;15.60;99.90;;;;;;5327643;26;20703;-67
2024/04/14 01:56:29;;;;;;;4.07;2.70;;;15.60;99.90;;;;;;5354976;22;20933;-66
2024/04/14 01:58:54;;;;;;;3.13;2.90;;;15.60;99.90;;;;;;5365975;26;20313;-66
2024/04/14 02:01:20;;;;;;;3.80;3.50;;;15.60;99.90;;;;;;5347613;26;20221;-66
2024/04/14 02:03:46;;;;;;;5.00;3.53;;;15.60;99.90;;;;;;5347875;26;20267;-66
2024/04/14 02:06:11;;;;;;;4.23;3.87;;;15.40;99.90;;;;;;5361589;26;20568;-66
2024/04/14 02:08:37;;;;;;;3.10;2.90;;;15.20;99.90;;;;;;5381297;26;20573;-66
2024/04/14 02:11:02;;;;;;;3.60;3.30;;;15.00;99.90;;;;;;5382048;26;20270;-66
2024/04/14 02:13:28;;;;;;;4.00;3.60;;;14.90;99.90;;;;;;5382540;26;20224;-66
2024/04/14 02:15:54;;;;;;;2.80;2.60;;;14.90;99.90;;;;;;5382063;26;20282;-67
2024/04/14 02:18:19;;;;;;;6.77;4.37;;;14.90;99.90;;;;;;5381191;26;20232;-66
2024/04/14 02:20:45;;;;;;;4.27;3.37;;;14.90;99.90;;;;;;5382149;26;20760;-66
2024/04/14 02:23:10;;;;;;;3.10;2.80;;;15.00;99.90;;;;;;5381962;26;20232;-66
2024/04/14 02:25:36;;;;;;;3.80;3.50;;;14.90;99.90;;;;;;5382099;26;20224;-66
2024/04/14 02:28:01;;;;;;;5.20;3.27;;;14.80;99.90;;;;;;5381403;26;20212;-66
2024/04/14 02:30:27;;;;;;;4.37;3.30;;;14.70;99.90;;;;;;5381524;26;20216;-66
2024/04/14 02:32:52;;;;;;;3.13;2.93;;;14.60;99.90;;;;;;5382085;26;20218;-66
2024/04/14 02:35:18;;;;;;;3.57;3.37;;;14.70;99.90;;;;;;5381488;26;20228;-66
2024/04/14 02:37:43;;;;;;;3.07;2.87;;;14.70;99.90;;;;;;5381052;26;20239;-66
2024/04/14 02:40:12;;;;;;;7.23;3.47;;;14.80;99.90;;;;;;5381404;26;20228;-66
2024/04/14 02:42:37;;;;;;;3.20;3.00;;;14.90;99.90;;;;;;5382288;26;20212;-66
2024/04/14 02:45:03;;;;;;;2.87;2.67;;;15.10;99.90;;;;;;5381701;26;20531;-66
2024/04/14 02:47:29;;;;;;;3.70;3.30;;;15.10;99.90;;;;;;5380694;26;20258;-66
2024/04/14 02:49:55;;;;;;;3.97;3.40;;;15.20;99.90;;;;;;5381923;26;20455;-66
2024/04/14 02:52:20;;;;;;;3.57;3.27;;;15.10;99.90;;;;;;5381604;26;20232;-66
2024/04/14 02:54:46;;;;;;;3.60;2.70;;;14.90;99.90;;;;;;5381674;26;20231;-66
2024/04/14 02:57:12;;;;;;;4.23;3.20;;;14.90;99.90;;;;;;5381191;26;20220;-68
2024/04/14 02:59:38;;;;;;;2.87;2.67;;;14.90;99.90;;;;;;5381925;26;21011;-66
2024/04/14 03:02:05;;;;;;;3.63;3.37;;;15.00;99.90;;;;;;5381640;26;20474;-66
2024/04/14 03:04:30;;;;;;;2.93;2.73;;;15.20;99.90;;;;;;5380018;26;20228;-66
2024/04/14 03:06:56;;;;;;;4.00;3.20;;;15.30;99.90;;;;;;5380618;26;20454;-66
2024/04/14 03:09:21;;;;;;;3.37;3.07;;;15.40;99.90;;;;;;5381431;26;20616;-66
2024/04/14 03:11:47;;;;;;;6.80;3.80;;;15.60;99.90;;;;;;5381262;26;20259;-66
2024/04/14 03:14:12;;;;;;;3.37;3.07;;;15.70;99.90;;;;;;5381334;26;20270;-66
2024/04/14 03:16:38;;;;;;;3.43;3.23;;;15.70;99.90;;;;;;5380706;26;20228;-68
2024/04/14 03:19:03;;;;;;;2.80;2.60;;;15.70;99.90;;;;;;5381168;26;20304;-66
2024/04/14 03:21:29;;;;;;;4.33;3.00;;;15.70;99.90;;;;;;5380977;26;20332;-66
2024/04/14 03:23:55;;;;;;;4.93;3.10;;;15.80;99.90;;;;;;5381490;26;20220;-66
2024/04/14 03:26:20;;;;;;;4.03;2.70;;;15.70;99.90;;;;;;5381199;26;20277;-66
2024/04/14 03:28:46;;;;;;;3.73;3.37;;;15.80;99.90;;;;;;5380602;26;20266;-66
2024/04/14 03:31:11;;;;;;;3.20;3.00;;;15.80;99.90;;;;;;5381696;26;20224;-66
2024/04/14 03:33:37;;;;;;;3.53;2.80;;;15.80;99.90;;;;;;5381067;26;20282;-66
2024/04/14 03:36:04;;;;;;;3.40;3.10;;;15.80;99.90;;;;;;5381088;26;20559;-66
2024/04/14 03:38:33;;;;;;;2.50;2.30;;;15.80;99.90;;;;;;5380295;26;20251;-66
2024/04/14 03:40:59;;;;;;;3.30;2.63;;;15.80;99.90;;;;;;5380890;26;20506;-66
2024/04/14 03:43:25;;;;;;;3.00;2.80;;;15.80;99.90;;;;;;5381027;26;20454;-66
2024/04/14 03:45:50;;;;;;;3.33;2.70;;;15.80;99.90;;;;;;5380857;26;20224;-66
2024/04/14 03:48:16;;;;;;;3.07;2.87;;;15.70;99.90;;;;;;5379790;26;20216;-66
2024/04/14 03:50:42;;;;;;;3.60;2.80;;;15.70;99.90;;;;;;5381072;26;20256;-66
2024/04/14 03:53:07;;;;;;;3.00;2.70;;;15.70;99.90;;;;;;5380531;26;20696;-67
2024/04/14 03:55:33;;;;;;;9.73;3.20;;;15.80;99.90;;;;;;5380818;26;20270;-66
2024/04/14 03:57:58;;;;;;;3.57;3.17;;;15.70;99.90;;;;;;5380320;26;20228;-66
2024/04/14 04:00:24;;;;;;;2.90;2.67;;;15.80;99.90;;;;;;5379213;26;20336;-67
2024/04/14 04:02:50;;;;;;;3.40;3.10;;;15.80;99.90;;;;;;5381051;26;20224;-67
2024/04/14 04:05:15;;;;;;;3.50;3.10;;;15.80;99.90;;;;;;5381568;26;20320;-67
2024/04/14 04:07:41;;;;;;;3.10;2.80;;;15.80;99.90;;;;;;5380447;26;20231;-67
2024/04/14 04:10:06;;;;;;;2.63;2.43;;;15.80;99.90;;;;;;5380913;26;20224;-66
2024/04/14 04:12:33;;;;;;;4.20;2.97;;;15.80;99.90;;;;;;5381169;26;20224;-66
2024/04/14 04:14:59;;;;;;;3.20;2.97;;;15.70;99.90;;;;;;5381112;26;20216;-66
2024/04/14 04:17:24;;;;;;;3.60;2.67;;;15.70;99.90;;;;;;5378744;26;20521;-67
2024/04/14 04:19:50;;;;;;;4.03;3.70;;;15.70;99.90;;;;;;5381803;26;20220;-67
2024/04/14 04:22:15;;;;;;;3.53;3.23;;;15.60;99.90;;;;;;5382032;26;20221;-66
2024/04/14 04:24:41;;;;;;;3.30;3.00;;;15.50;99.90;;;;;;5381365;26;20336;-67
2024/04/14 04:27:07;;;;;;;5.40;3.10;;;15.40;99.90;;;;;;5380651;26;20583;-67
2024/04/14 04:29:33;;;;;;;4.07;3.40;;;15.40;99.90;;;;;;5381709;26;20438;-66
2024/04/14 04:31:58;;;;;;;3.17;2.97;;;15.30;99.90;;;;;;5381700;26;20258;-67
2024/04/14 04:34:24;;;;;;;3.40;2.90;;;15.20;99.90;;;;;;5380991;26;20224;-67
2024/04/14 04:36:50;;;;;;;7.50;3.30;;;15.00;99.90;;;;;;5380461;26;20709;-66
2024/04/14 04:39:16;;;;;;;6.37;3.43;;;15.00;99.90;;;;;;5381027;26;20333;-67
2024/04/14 04:41:41;;;;;;;3.50;3.20;;;15.00;99.90;;;;;;5380584;26;20453;-66
2024/04/14 04:44:07;;;;;;;3.87;2.87;;;14.90;99.90;;;;;;5380963;26;20223;-67
2024/04/14 04:46:33;;;;;;;3.40;3.13;;;14.90;99.90;;;;;;5378588;26;20228;-67
2024/04/14 04:48:59;;;;;;;2.83;2.63;;;14.80;99.90;;;;;;5381008;26;20450;-67
2024/04/14 04:51:25;;;;;;;3.80;3.50;;;14.70;99.90;;;;;;5381817;26;20219;-67
2024/04/14 04:53:50;;;;;;;3.07;2.87;;;14.70;99.90;;;;;;5381311;26;20499;-67
2024/04/14 04:56:16;;;;;;;3.23;3.03;;;14.70;99.90;;;;;;5381124;26;20624;-67
2024/04/14 04:58:41;;;;;;;4.07;3.87;;;14.60;99.90;;;;;;5380575;26;20293;-66
2024/04/14 05:01:09;;;;;;;3.43;3.10;;;14.70;99.90;;;;;;5380647;26;20266;-66
2024/04/14 05:03:35;;;;;;;5.23;3.93;;;14.80;99.90;;;;;;5380774;26;20663;-68
2024/04/14 05:06:02;;;;;;;3.23;2.93;;;14.80;99.90;;;;;;5381333;26;20470;-67
2024/04/14 05:08:28;;;;;;;4.10;3.80;;;14.80;99.90;;;;;;5380133;26;20250;-67
2024/04/14 05:10:56;;;;;;;3.27;3.07;;;14.80;99.90;;;;;;5380538;26;20451;-67
2024/04/14 05:13:22;;;;;;;3.70;3.40;;;14.90;99.90;;;;;;5380731;26;20258;-67
2024/04/14 05:15:48;;;;;;;3.90;3.50;;;14.90;99.90;;;;;;5379858;26;21069;-67
2024/04/14 05:18:14;;;;;;;4.23;2.80;;;15.00;99.90;;;;;;5380149;26;20449;-67
2024/04/14 05:20:40;;;;;;;3.80;3.00;;;15.00;99.90;;;;;;5380414;26;20232;-67
2024/04/14 05:23:07;;;;;;;3.40;2.70;;;15.10;99.90;;;;;;5380611;26;20461;-67
2024/04/14 05:25:36;;;;;;;3.50;3.20;;;15.10;99.90;;;;;;5380197;26;20451;-67
2024/04/14 05:28:02;;;;;;;3.33;3.03;;;15.20;99.90;;;;;;5379312;26;20989;-66
2024/04/14 05:30:28;;;;;;;3.87;3.57;;;15.40;99.90;;;;;;5380879;26;20585;-66
2024/04/14 05:32:54;;;;;;;3.80;3.50;;;15.60;99.90;;;;;;5380220;26;20603;-66
2024/04/14 05:35:20;;;;;;;3.67;3.47;;;15.70;99.90;;;;;;5379158;26;20505;-67
2024/04/14 05:37:46;;;;;;;3.33;3.13;;;15.80;99.90;;;;;;5378791;26;20446;-67
2024/04/14 05:40:11;;;;;;;3.47;3.27;;;15.90;99.90;;;;;;5379778;26;20640;-68
2024/04/14 05:42:37;;;;;;;3.77;3.47;;;16.00;99.90;;;;;;5379573;26;20216;-67
2024/04/14 05:45:02;;;;;;;3.73;3.50;;;16.10;99.90;;;;;;5373608;26;20262;-68
2024/04/14 05:47:28;;;;;;;5.70;3.50;;;16.20;99.90;;;;;;5376584;26;20570;-67
2024/04/14 05:49:54;;;;;;;2.80;2.60;;;16.40;99.90;;;;;;5370024;26;20271;-67
2024/04/14 05:52:20;;;;;;;6.17;3.50;;;16.60;99.90;;;;;;5377159;26;20333;-67
2024/04/14 05:54:45;;;;;;;3.83;3.53;;;16.80;99.90;;;;;;5378659;26;20236;-68
2024/04/14 05:57:11;;;;;;;3.97;3.67;;;16.90;99.90;;;;;;5377519;26;21010;-67
2024/04/14 05:59:36;;;;;;;3.80;3.50;;;16.90;99.90;;;;;;5378997;26;20280;-66
2024/04/14 06:02:03;;;;;;;5.50;4.20;;;16.70;99.90;;;;;;5379106;26;20321;-68
2024/04/14 06:04:28;;;;;;;3.83;3.47;;;16.80;99.90;;;;;;5378839;26;20693;-67
2024/04/14 06:06:54;;;;;;;4.07;3.50;;;17.00;99.90;;;;;;5377188;26;20466;-68
2024/04/14 06:09:21;;;;;;;4.03;3.73;;;17.20;99.90;;;;;;5379219;26;20259;-67
2024/04/14 06:11:47;;;;;;;4.57;3.53;;;17.40;99.90;;;;;;5381243;26;20302;-69
2024/04/14 06:14:12;;;;;;;3.73;3.43;;;17.60;99.90;;;;;;5382414;26;21002;-68
2024/04/14 06:16:38;;;;;;;5.23;3.73;;;17.70;99.90;;;;;;5381029;26;20296;-67
2024/04/14 06:19:03;;;;;;;4.70;3.50;;;17.90;99.90;;;;;;5381810;26;20708;-68
2024/04/14 06:21:28;;;;;;;4.63;4.33;;;18.10;99.90;;;;;;5381902;26;20232;-68
2024/04/14 06:23:54;;;;;;;5.37;4.97;;;18.30;99.90;;;;;;5381055;26;20307;-68
2024/04/14 06:26:19;;;;;;;4.77;4.37;;;18.50;99.90;;;;;;5378202;26;20978;-66
2024/04/14 06:28:45;;;;;;;4.30;3.87;;;18.70;99.90;;;;;;5381388;26;20239;-68
2024/04/14 06:31:11;;;;;;;3.93;3.63;;;18.70;99.90;;;;;;5381638;26;20305;-68
2024/04/14 06:33:37;;;;;;;5.13;4.57;;;18.60;99.90;;;;;;5382214;26;20208;-69
2024/04/14 06:36:03;;;;;;;7.00;4.57;;;18.60;99.90;;;;;;5381883;26;21038;-68
2024/04/14 06:38:30;;;;;;;4.37;3.97;;;18.60;99.90;;;;;;5380450;26;20220;-68
2024/04/14 06:40:55;;;;;;;3.50;3.30;;;18.70;99.90;;;;;;5380668;26;20982;-68
2024/04/14 06:43:21;;;;;;;3.53;3.30;;;18.90;99.90;;;;;;5374041;26;20472;-68
2024/04/14 06:45:54;;;;;;;5.63;4.00;;;19.10;99.90;;;;;;5374598;26;20243;-68
2024/04/14 06:48:20;;;;;;;7.63;4.40;;;19.30;99.90;;;;;;5380768;26;20304;-68
2024/04/14 06:50:46;;;;;;;4.33;4.03;;;19.50;99.90;;;;;;5381711;26;20573;-68
2024/04/14 06:53:12;;;;;;;3.87;3.57;;;19.70;99.90;;;;;;5382192;26;20959;-67
2024/04/14 06:55:37;;;;;;;4.80;3.67;;;19.80;99.90;;;;;;5380955;26;20224;-69
2024/04/14 06:58:03;;;;;;;3.77;3.13;;;20.00;99.90;;;;;;5380562;26;20510;-68
2024/04/14 07:00:28;;;;;;;2.87;2.67;;;20.40;99.90;;;;;;5381652;26;20227;-68
2024/04/14 07:02:54;;;;;;;5.60;3.10;;;20.20;99.90;;;;;;5381760;26;20278;-67
2024/04/14 07:05:19;;;;;;;6.83;6.13;;;20.10;99.70;;;;;;5381682;26;20204;-68
2024/04/14 07:07:45;;;;;;;3.47;3.17;;;20.10;99.80;;;;;;5380837;26;20776;-68
2024/04/14 07:10:10;;;;;;;3.37;3.07;;;20.30;98.40;;;;;;5380831;26;20224;-67
2024/04/14 07:12:36;;;;;;;3.27;2.97;;;20.30;97.90;;;;;;5380724;26;20282;-68
2024/04/14 07:15:01;;;;;;;3.07;2.87;;;20.40;97.70;;;;;;5381636;26;20224;-68
2024/04/14 07:17:28;;;;;;;4.67;3.10;;;20.70;97.40;;;;;;5380439;26;20267;-67
2024/04/14 07:19:54;;;;;;;2.90;2.50;;;20.80;97.00;;;;;;5380953;26;20231;-68
2024/04/14 07:22:20;;;;;;;3.00;2.70;;;20.80;97.10;;;;;;5380273;26;20986;-68
2024/04/14 07:24:45;;;;;;;3.60;3.30;;;20.80;95.90;;;;;;5381119;26;20265;-69
2024/04/14 07:27:11;;;;;;;3.73;2.87;;;20.90;96.60;;;;;;5380363;26;20228;-68
2024/04/14 07:29:36;;;;;;;2.50;2.30;;;20.80;95.60;;;;;;5381066;26;20701;-68
2024/04/14 07:32:02;;;;;;;2.70;2.50;;;20.70;96.30;;;;;;5381680;26;20220;-68
2024/04/14 07:34:27;;;;;;;4.83;4.20;;;20.70;95.40;;;;;;5381383;26;20204;-69
2024/04/14 07:36:53;;;;;;;4.27;3.90;;;20.80;95.90;;;;;;5379937;26;20974;-68
2024/04/14 07:39:18;;;;;;;3.07;2.90;;;20.80;95.20;;;;;;5380776;26;20269;-67
2024/04/14 07:41:44;;;;;;;6.43;2.83;;;21.10;96.10;;;;;;5381007;26;20216;-68
2024/04/14 07:44:09;;;;;;;2.70;2.50;;;21.50;95.10;;;;;;5380863;26;20601;-68
2024/04/14 07:46:35;;;;;;;4.03;2.97;;;21.60;94.50;;;;;;5380305;26;20725;-69
2024/04/14 07:49:00;;;;;;;3.23;2.93;;;21.90;94.00;;;;;;5380819;26;20317;-68
2024/04/14 07:51:26;;;;;;;3.40;2.90;;;21.90;94.10;;;;;;5380928;26;20223;-68
2024/04/14 07:53:52;;;;;;;2.73;2.53;;;22.20;92.60;;;;;;5380835;26;20227;-68
2024/04/14 07:56:18;;;;;;;3.27;2.97;;;22.40;92.40;;;;;;5398003;22;20267;-66
2024/04/14 07:58:43;;;;;;;2.67;2.50;;;22.40;92.50;;;;;;5380304;26;20224;-66
2024/04/14 08:01:09;;;;;;;4.50;2.87;;;22.50;91.60;;;;;;5380674;26;20462;-68
2024/04/14 08:03:35;;;;;;;4.33;2.70;;;22.80;91.20;;;;;;5380607;26;20462;-68
2024/04/14 08:06:00;;;;;;;3.23;3.03;;;22.90;90.30;;;;;;5386949;26;20776;-68
2024/04/14 08:08:26;;;;;;;2.73;2.53;;;22.70;90.60;;;;;;5415314;26;20613;-68
2024/04/14 08:10:51;;;;;;;3.20;3.00;;;22.70;90.50;;;;;;5416098;26;20223;-68
2024/04/14 08:13:17;;;;;;;2.67;2.50;;;22.60;89.70;;;;;;5416167;26;20231;-68
2024/04/14 08:15:42;;;;;;;4.03;3.70;;;22.80;89.70;;;;;;5415929;26;20223;-68
2024/04/14 08:18:08;;;;;;;2.83;2.63;;;23.00;89.80;;;;;;5414797;26;20242;-69
2024/04/14 08:20:34;;;;;;;2.60;2.40;;;23.30;88.10;;;;;;5416118;26;20223;-68
2024/04/14 08:22:59;;;;;;;3.17;2.80;;;23.60;88.60;;;;;;5416206;26;20223;-68
2024/04/14 08:25:25;;;;;;;2.60;2.40;;;23.90;84.90;;;;;;5415676;26;20594;-68
2024/04/14 08:27:50;;;;;;;2.90;2.67;;;24.20;83.10;;;;;;5414960;26;20281;-68
2024/04/14 08:30:17;;;;;;;3.07;2.77;;;24.00;82.50;;;;;;5415605;26;20234;-68
2024/04/14 08:32:42;;;;;;;5.93;2.73;;;24.00;84.10;;;;;;5415917;26;20270;-68
2024/04/14 08:35:08;;;;;;;5.03;3.10;;;24.40;81.80;;;;;;5415493;26;20457;-69
2024/04/14 08:37:34;;;;;;;4.03;2.80;;;24.50;81.40;;;;;;5415084;26;20223;-68
2024/04/14 08:39:59;;;;;;;2.83;2.63;;;24.80;81.10;;;;;;5415541;26;20235;-68
2024/04/14 08:42:25;;;;;;;3.50;3.20;;;25.30;81.30;;;;;;5416388;26;20559;-66
2024/04/14 08:44:52;;;;;;;3.30;3.00;;;25.50;80.10;;;;;;5415326;26;20227;-67
2024/04/14 08:47:19;;;;;;;3.80;3.50;;;25.50;80.70;;;;;;5414564;26;20238;-67
2024/04/14 08:49:46;;;;;;;4.87;3.83;;;25.50;79.20;;;;;;5414995;26;20588;-67
2024/04/14 08:52:14;;;;;;;3.70;3.30;;;25.80;76.70;;;;;;5415431;26;20465;-68
2024/04/14 08:54:40;;;;;;;3.70;2.83;;;25.90;76.30;;;;;;5415408;26;20516;-68
2024/04/14 08:57:06;;;;;;;4.47;3.27;;;26.20;76.20;;;;;;5414184;26;20947;-68
2024/04/14 08:59:33;;;;;;;3.00;2.80;;;26.60;72.10;;;;;;5415733;26;20234;-68
2024/04/14 09:02:00;;;;;;;3.63;2.93;;;26.60;70.90;;;;;;5414817;26;20223;-68
2024/04/14 09:04:26;;;;;;;5.57;3.50;;;26.60;69.90;;;;;;5415088;26;20488;-69
2024/04/14 09:06:52;;;;;;;3.60;2.50;;;26.50;69.40;;;;;;5413394;26;20468;-68
2024/04/14 09:09:18;;;;;;;8.23;3.57;;;26.50;69.90;;;;;;5414779;26;20270;-68
2024/04/14 09:11:55;;;;;;;5.33;3.80;;;26.50;69.30;;;;;;5414977;26;20261;-68
2024/04/14 09:14:22;;;;;;;3.30;2.80;;;26.50;70.10;;;;;;5415254;26;20574;-68
2024/04/14 09:16:49;;;;;;;3.70;2.83;;;27.00;67.90;;;;;;5413805;26;20488;-68
2024/04/14 09:19:15;;;;;;;3.57;2.70;;;26.50;68.20;;;;;;5414905;26;20461;-68
2024/04/14 09:21:40;;;;;;;3.03;2.83;;;27.00;66.70;;;;;;5415003;26;20977;-68
2024/04/14 09:24:06;;;;;;;3.27;2.97;;;27.70;64.00;;;;;;5415151;26;20817;-68
2024/04/14 09:26:31;;;;;;;3.03;2.63;;;28.40;62.60;;;;;;5413604;26;21210;-68
2024/04/14 09:29:15;;;;;;;3.20;2.90;;;28.80;60.10;;;;;;5414838;26;20319;-67
2024/04/14 09:31:41;;;;;;;3.00;2.67;;;29.60;56.80;;;;;;5413793;26;20631;-69
2024/04/14 09:34:07;;;;;;;3.87;2.97;;;29.80;54.70;;;;;;5388933;26;20578;-69
2024/04/14 09:36:34;;;;;;;3.33;2.93;;;30.20;53.30;;;;;;5413474;26;20628;-70
2024/04/14 09:39:03;;;;;;;3.40;2.63;;;29.40;53.10;;;;;;5389266;26;20565;-69
2024/04/14 09:41:28;;;;;;;3.00;2.80;;;29.40;53.30;;;;;;5414920;26;20452;-70
2024/04/14 09:43:58;;;;;;;3.97;3.57;;;30.30;51.80;;;;;;5406775;26;20522;-70
2024/04/14 09:46:24;;;;;;;2.77;2.67;;;31.10;48.90;;;;;;5386176;26;20232;-70
2024/04/14 09:48:50;;;;;;;3.30;3.10;;;32.10;46.10;;;;;;5384230;26;20496;-68
2024/04/14 09:51:16;;;;;;;3.07;2.77;;;31.60;44.10;;;;;;5418570;26;20844;-68
2024/04/14 09:53:42;;;;;;;3.47;3.17;;;31.00;43.30;;;;;;5417424;26;20308;-69
2024/04/14 09:56:08;;;;;;;3.63;3.33;;;31.10;44.30;;;;;;5417866;26;20916;-69
2024/04/14 09:58:33;;;;;;;3.20;3.00;;;31.50;43.40;;;;;;5415991;26;20543;-69
2024/04/14 10:01:04;;;;;;;3.90;3.60;;;31.00;43.10;;;;;;5417980;26;20319;-66
2024/04/14 10:03:32;;;;;;;4.80;3.77;;;30.90;43.70;;;;;;5417864;26;20270;-70
2024/04/14 10:06:00;;;;;;;3.10;2.90;;;31.80;42.10;;;;;;5415186;26;20464;-69
2024/04/14 10:08:31;;;;;;;6.13;4.57;;;33.00;40.30;;;;;;5414682;26;20476;-69
2024/04/14 10:10:56;;;;;;;2.97;2.77;;;33.60;39.10;;;;;;5417995;26;20448;-70
2024/04/14 10:13:22;;;;;;;4.20;3.80;;;33.60;37.90;;;;;;5417485;26;20448;-69
2024/04/14 10:15:58;;;;;;;3.80;3.07;;;33.80;36.80;;;;;;5417966;26;20215;-70
2024/04/14 10:18:34;;;;;;;3.50;3.27;;;34.00;36.40;;;;;;5416968;26;20700;-69
2024/04/14 10:21:02;;;;;;;3.67;3.40;;;33.40;35.80;;;;;;5417265;26;20806;-70
2024/04/14 10:23:28;;;;;;;3.63;3.33;;;32.80;37.00;;;;;;5416263;26;20448;-70
2024/04/14 10:25:53;;;;;;;3.50;3.20;;;32.40;36.60;;;;;;5417525;26;20775;-71
2024/04/14 10:28:20;;;;;;;5.03;4.17;;;32.10;37.50;;;;;;5416531;26;20332;-70
2024/04/14 10:30:48;;;;;;;5.50;3.30;;;31.60;38.40;;;;;;5417551;26;20219;-70
2024/04/14 10:33:23;;;;;;;3.67;3.37;;;32.00;37.80;;;;;;5417432;26;20504;-70
2024/04/14 10:36:03;;;;;;;7.37;3.77;;;31.90;38.70;;;;;;5416809;26;20507;-70
2024/04/14 10:38:31;;;;;;;3.27;3.07;;;32.20;38.30;;;;;;5416345;26;20492;-70
2024/04/14 10:40:58;;;;;;;4.30;3.90;;;32.80;37.70;;;;;;5417347;26;20456;-70
2024/04/14 10:43:27;;;;;;;4.50;4.07;;;33.10;36.30;;;;;;5417592;26;21079;-70
2024/04/14 10:45:58;;;;;;;3.73;3.43;;;33.30;36.70;;;;;;5417084;26;20452;-70
2024/04/14 10:48:23;;;;;;;6.30;3.73;;;34.00;34.60;;;;;;5416562;26;20429;-70
2024/04/14 10:50:49;;;;;;;3.47;3.27;;;33.90;34.80;;;;;;5385345;26;20505;-70
2024/04/14 10:53:14;;;;;;;3.97;3.70;;;34.30;35.10;;;;;;5417346;26;20257;-70
2024/04/14 10:55:40;;;;;;;4.17;3.77;;;35.00;33.40;;;;;;5416787;26;20235;-70
2024/04/14 10:58:05;;;;;;;4.00;3.27;;;34.80;33.00;;;;;;5415720;26;20253;-70
2024/04/14 11:00:31;;;;;;;3.43;3.20;;;35.80;31.80;;;;;;5416916;26;20231;-70
2024/04/14 11:02:58;;;;;;;3.03;2.83;;;36.70;30.40;;;;;;5416323;26;20824;-70
2024/04/14 11:05:24;;;;;;;3.37;3.17;;;37.20;29.80;;;;;;5416696;26;20558;-70
2024/04/14 11:07:51;;;;;;;4.20;3.87;;;37.10;29.10;;;;;;5384625;26;20587;-70
2024/04/14 11:10:19;;;;;;;3.83;2.90;;;36.60;28.80;;;;;;5416590;26;21043;-70
2024/04/14 11:12:45;;;;;;;3.50;3.20;;;36.40;29.40;;;;;;5417094;26;20485;-70
2024/04/14 11:15:11;;;;;;;3.73;3.53;;;36.40;29.30;;;;;;5416997;26;20468;-70
2024/04/14 11:17:36;;;;;;;4.37;3.97;;;36.90;28.60;;;;;;5416053;26;20567;-70
2024/04/14 11:20:02;;;;;;;4.50;4.20;;;36.70;28.40;;;;;;5416706;26;20223;-70
2024/04/14 11:22:28;;;;;;;3.40;3.20;;;37.00;27.90;;;;;;5416805;26;20257;-70
2024/04/14 11:24:53;;;;;;;4.07;3.60;;;37.40;26.90;;;;;;5416884;26;20740;-70
2024/04/14 11:27:20;;;;;;;5.20;3.50;;;36.50;27.60;;;;;;5415940;26;20719;-70
2024/04/14 11:29:46;;;;;;;4.90;3.27;;;36.70;27.70;;;;;;5416534;26;20327;-70
2024/04/14 11:32:29;;;;;;;4.10;3.80;;;36.80;27.70;;;;;;5416841;26;20516;-70
2024/04/14 11:34:57;;;;;;;3.83;3.50;;;36.30;27.80;;;;;;5417038;26;20519;-70
2024/04/14 11:37:22;;;;;;;3.93;3.37;;;35.60;28.30;;;;;;5415420;26;20457;-70
2024/04/14 11:39:50;;;;;;;5.93;3.20;;;35.30;28.40;;;;;;5416530;26;20509;-70
2024/04/14 11:42:17;;;;;;;4.30;3.97;;;34.90;29.10;;;;;;5416398;26;20257;-70
2024/04/14 11:44:43;;;;;;;4.00;3.33;;;35.00;28.80;;;;;;5416835;26;20534;-70
2024/04/14 11:47:08;;;;;;;4.00;3.70;;;34.20;28.80;;;;;;5378448;26;20457;-70
2024/04/14 11:49:34;;;;;;;4.13;3.83;;;34.00;30.00;;;;;;5393194;26;20278;-70
2024/04/14 11:51:59;;;;;;;3.20;3.00;;;33.80;30.40;;;;;;5416481;26;20219;-70
2024/04/14 11:54:25;;;;;;;4.80;4.20;;;34.50;29.40;;;;;;5416121;26;20730;-70
2024/04/14 11:56:52;;;;;;;4.37;4.07;;;34.30;29.40;;;;;;5415553;26;20219;-70
2024/04/14 11:59:19;;;;;;;4.53;4.13;;;34.10;29.50;;;;;;5415939;26;20776;-70
2024/04/14 12:01:45;;;;;;;3.90;3.50;;;33.30;29.90;;;;;;5416512;26;20448;-69
2024/04/14 12:04:11;;;;;;;4.13;3.70;;;32.10;30.70;;;;;;5416695;26;20530;-70
2024/04/14 12:06:38;;;;;;;4.07;3.67;;;30.90;32.70;;;;;;5414702;26;20973;-69
2024/04/14 12:09:03;;;;;;;3.37;3.07;;;30.50;33.40;;;;;;5415071;26;20222;-70
2024/04/14 12:11:29;;;;;;;3.93;3.60;;;29.80;34.40;;;;;;5415831;26;20515;-69
2024/04/14 12:13:55;;;;;;;3.50;3.30;;;30.30;33.90;;;;;;5416050;26;20227;-69
2024/04/14 12:16:20;;;;;;;4.90;2.90;;;31.00;33.30;;;;;;5414600;26;20615;-69
2024/04/14 12:18:46;;;;;;;3.73;3.20;;;32.40;31.40;;;;;;5415436;26;20630;-70
2024/04/14 12:21:11;;;;;;;3.73;3.43;;;33.20;30.20;;;;;;5415660;26;20223;-69
2024/04/14 12:23:37;;;;;;;3.80;3.50;;;32.80;30.10;;;;;;5415784;26;20270;-71
2024/04/14 12:26:02;;;;;;;5.03;3.40;;;31.30;31.10;;;;;;5416099;26;20222;-71
2024/04/14 12:28:28;;;;;;;3.70;3.50;;;31.00;32.10;;;;;;5415081;26;20241;-71
2024/04/14 12:30:57;;;;;;;5.20;3.07;;;30.70;32.80;;;;;;5415954;26;20223;-71
2024/04/14 12:33:29;;;;;;;3.43;3.10;;;31.10;32.70;;;;;;5415719;26;20294;-71
2024/04/14 12:35:56;;;;;;;11.43;3.77;;;31.70;31.40;;;;;;5415472;26;20508;-71
2024/04/14 12:38:21;;;;;;;3.07;2.87;;;32.70;28.80;;;;;;5383318;26;20829;-71
2024/04/14 12:40:47;;;;;;;3.60;3.30;;;33.80;28.50;;;;;;5415064;26;20456;-71
2024/04/14 12:43:12;;;;;;;3.77;3.47;;;35.20;27.10;;;;;;5415620;26;20211;-71